모두
K. D. Matanzima Airport (Umtata) UTT 기상
|
Umtata (UTT / FAUT)
맑은 하늘
가벼운 바람 |
|
14 °C |
UTT 터미널 지역 예측
| Date | Time (SAST) | Flight Rules | Wind Dir. | Speed | Type | Height AGL (ft) | Visibility | Remarks | ||||||
|---|---|---|---|---|---|---|---|---|---|---|---|---|---|---|
| 05-9월 | 19:00 | MVFR | Variable | 3 kt | Broken | 1,000 | >= 6 miles | Becoming. (30% chance) | ||||||
| 05-9월 | 18:00 | MVFR | Variable | 3 kt | Broken | 1,000 | >= 6 miles | Becoming. (30% chance) | ||||||
최근 UTT METAR 이력
| Date | Time (SAST) | Flight Rules | Wind Dir. | Speed | Type | Height AGL (ft) | Visibility | Temp (°C) | Temp (°F) | Dew Point (°C) | Dew Point (°F) | Rel. Humid. | Pressure | Density Altitude | Remarks |
|---|---|---|---|---|---|---|---|---|---|---|---|---|---|---|---|
| 05-9월 | 18:00 | n/a | 160° | 7 kt | Missing | 14° | 57° | 11° | 51° | 82% | 1025 mb | 2,407 ft | |||
| 05-9월 | 17:00 | n/a | 170° | 6 kt | Missing | 15° | 59° | 11° | 51° | 77% | 1024 mb | 2,556 ft | |||
| 05-9월 | 16:00 | n/a | 150° | 4 kt | Missing | 15° | 59° | 10° | 50° | 72% | 1023 mb | 2,586 ft | |||
| 05-9월 | 15:00 | n/a | 160° | 6 kt | Missing | 16° | 60° | 10° | 50° | 68% | 1023 mb | 2,706 ft | |||
| 05-9월 | 14:00 | n/a | 140° | 5 kt | Missing | 16° | 60° | 10° | 50° | 68% | 1024 mb | 2,676 ft | |||
| 05-9월 | 13:00 | n/a | 30° | 1 kt | Missing | 15° | 59° | 9° | 48° | 67% | 1025 mb | 2,527 ft | |||
| 05-9월 | 12:00 | n/a | 350° | 3 kt | Missing | 15° | 59° | 9° | 48° | 67% | 1025 mb | 2,527 ft | |||
| 05-9월 | 11:00 | n/a | 60° | 6 kt | Missing | 15° | 59° | 10° | 50° | 72% | 1025 mb | 2,527 ft | |||
| 05-9월 | 10:00 | n/a | 70° | 7 kt | Missing | 15° | 59° | 10° | 50° | 72% | 1026 mb | 2,497 ft | |||
| 05-9월 | 09:00 | n/a | 90° | 7 kt | Missing | 13° | 55° | 9° | 48° | 77% | 1027 mb | 2,228 ft | |||
| 05-9월 | 08:00 | MVFR | 80° | 3 kt | Few Broken |
500 1,500 |
10000 meters | 12° | 53° | 9° | 48° | 82% | 1027 mb | 2,108 ft | |
| 05-9월 | 07:00 | n/a | 140° | 6 kt | Missing | 10° | 50° | 9° | 48° | 93% | 1026 mb | 1,897 ft | |||
| 05-9월 | 06:00 | n/a | 140° | 6 kt | Missing | 10° | 50° | 9° | 48° | 93% | 1026 mb | 1,897 ft | |||
| 05-9월 | 05:00 | n/a | 100° | 7 kt | Missing | 10° | 50° | 9° | 48° | 93% | 1026 mb | 1,897 ft | |||
| 05-9월 | 04:00 | n/a | 110° | 6 kt | Missing | 11° | 51° | 9° | 48° | 87% | 1026 mb | 2,017 ft | |||
| 05-9월 | 03:00 | n/a | 100° | 7 kt | Missing | 11° | 51° | 9° | 48° | 87% | 1027 mb | 1,988 ft | |||
| 05-9월 | 02:00 | n/a | 100° | 3 kt | Missing | 11° | 51° | 9° | 48° | 87% | 1028 mb | 1,958 ft | |||
| 05-9월 | 01:00 | n/a | 140° | 3 kt | Missing | 10° | 50° | 10° | 50° | 100% | 1029 mb | 1,809 ft | |||
| 05-9월 | 00:00 | n/a | 120° | 5 kt | Missing | 10° | 50° | 9° | 48° | 93% | 1030 mb | 1,779 ft | |||
| 04-9월 | 23:00 | n/a | 130° | 4 kt | Missing | 10° | 50° | 10° | 50° | 100% | 1030 mb | 1,779 ft | |||
| 04-9월 | 22:00 | n/a | 110° | 3 kt | Missing | 10° | 50° | 10° | 50° | 100% | 1030 mb | 1,779 ft | |||
| 04-9월 | 21:00 | n/a | 130° | 3 kt | Missing | 10° | 50° | 9° | 48° | 93% | 1031 mb | 1,750 ft | |||
| 04-9월 | 20:00 | n/a | 150° | 4 kt | Missing | 10° | 50° | 9° | 48° | 93% | 1030 mb | 1,779 ft | |||
| 04-9월 | 19:00 | n/a | 170° | 6 kt | Missing | 10° | 50° | 9° | 48° | 93% | 1030 mb | 1,779 ft |
로그인
| 귀하의 브라우저는 지원되지 않습니다.. 브라우저를 업그레이드하세요 |
